createdAt,value
2019-03-29T00:01:32.790Z,6.50
2019-03-29T00:04:02.394Z,6.60
2019-03-29T00:06:32.041Z,6.50
2019-03-29T00:09:02.078Z,6.50
2019-03-29T00:11:32.050Z,6.60
2019-03-29T00:14:01.752Z,6.60
2019-03-29T00:16:31.458Z,6.60
2019-03-29T00:19:01.346Z,6.50
2019-03-29T00:21:32.065Z,6.60
2019-03-29T00:24:06.931Z,6.60
2019-03-29T00:26:33.042Z,6.60
2019-03-29T00:29:03.230Z,6.60
2019-03-29T00:31:33.045Z,6.60
2019-03-29T00:34:02.652Z,6.60
2019-03-29T00:36:32.380Z,6.60
2019-03-29T00:39:01.995Z,6.60
2019-03-29T00:41:31.611Z,6.60
2019-03-29T00:44:01.309Z,6.60
2019-03-29T00:46:31.007Z,6.60
2019-03-29T00:49:00.619Z,6.60
2019-03-29T00:51:30.232Z,6.50
2019-03-29T00:53:59.847Z,6.50
2019-03-29T00:56:29.460Z,6.50
2019-03-29T00:58:59.132Z,6.50
2019-03-29T01:01:28.756Z,6.40
2019-03-29T01:03:58.368Z,6.40
2019-03-29T01:06:27.987Z,6.40
2019-03-29T01:08:57.634Z,6.40
2019-03-29T01:11:27.252Z,6.40
2019-03-29T01:13:56.799Z,6.40
2019-03-29T01:16:27.163Z,6.40
2019-03-29T01:18:57.559Z,6.40
2019-03-29T01:21:27.234Z,6.40
2019-03-29T01:23:56.840Z,6.40
2019-03-29T01:26:27.144Z,6.40
2019-03-29T01:28:56.861Z,6.40
2019-03-29T01:31:26.490Z,6.50
2019-03-29T01:33:56.386Z,6.50
2019-03-29T01:36:26.032Z,6.50
2019-03-29T01:38:55.652Z,6.50
2019-03-29T01:41:25.284Z,6.50
2019-03-29T01:43:54.962Z,6.50
2019-03-29T01:46:24.604Z,6.40
2019-03-29T01:48:54.225Z,6.40
2019-03-29T01:51:23.875Z,6.40
2019-03-29T01:53:53.482Z,6.40
2019-03-29T01:56:23.126Z,6.40
2019-03-29T01:58:52.721Z,6.40
2019-03-29T02:01:22.347Z,6.40
2019-03-29T02:03:51.945Z,6.40
2019-03-29T02:06:21.588Z,6.40
2019-03-29T02:08:51.182Z,6.40
2019-03-29T02:11:20.838Z,6.40
2019-03-29T02:13:51.253Z,6.40
2019-03-29T02:16:21.567Z,6.30
2019-03-29T02:18:51.232Z,6.40
2019-03-29T02:21:20.869Z,6.30
2019-03-29T02:23:50.473Z,6.20
2019-03-29T02:26:20.107Z,6.10
2019-03-29T02:28:49.737Z,6.10
2019-03-29T02:31:19.370Z,6.10
2019-03-29T02:33:48.990Z,6.10
2019-03-29T02:36:18.629Z,6.20
2019-03-29T02:38:55.542Z,6.20
2019-03-29T02:41:19.711Z,6.10
2019-03-29T02:43:49.518Z,6.10
2019-03-29T02:46:19.152Z,6.00
2019-03-29T02:48:48.791Z,6.00
2019-03-29T02:51:18.483Z,6.00
2019-03-29T02:53:48.101Z,6.00
2019-03-29T02:56:17.732Z,6.00
2019-03-29T02:58:47.396Z,6.00
2019-03-29T03:01:17.041Z,6.00
2019-03-29T03:03:46.669Z,6.00
2019-03-29T03:06:16.300Z,6.00
2019-03-29T03:08:45.925Z,6.00
2019-03-29T03:11:15.570Z,5.90
2019-03-29T03:13:45.176Z,5.90
2019-03-29T03:16:14.783Z,5.90
2019-03-29T03:18:44.408Z,5.90
2019-03-29T03:21:14.124Z,5.90
2019-03-29T03:23:43.739Z,5.90
2019-03-29T03:26:13.352Z,5.90
2019-03-29T03:28:42.974Z,5.90
2019-03-29T03:31:12.692Z,5.90
2019-03-29T03:33:42.340Z,5.90
2019-03-29T03:36:12.101Z,5.80
2019-03-29T03:38:41.760Z,5.80
2019-03-29T03:41:11.364Z,5.80
2019-03-29T03:43:40.985Z,5.80
2019-03-29T03:46:10.580Z,5.80
2019-03-29T03:48:40.276Z,5.80
2019-03-29T03:51:09.898Z,5.80
2019-03-29T03:53:39.650Z,5.80
2019-03-29T03:56:10.742Z,5.80
2019-03-29T03:58:41.039Z,5.80
2019-03-29T04:01:10.655Z,5.80
2019-03-29T04:03:40.278Z,5.80
2019-03-29T04:06:09.876Z,5.80
2019-03-29T04:08:39.503Z,5.90
2019-03-29T04:11:09.130Z,5.90
2019-03-29T04:13:38.768Z,5.90
2019-03-29T04:16:08.408Z,5.90
2019-03-29T04:18:38.027Z,5.80
2019-03-29T04:21:07.636Z,5.90
2019-03-29T04:23:37.282Z,5.90
2019-03-29T04:26:06.900Z,5.90
2019-03-29T04:28:36.567Z,5.80
2019-03-29T04:31:06.201Z,5.80
2019-03-29T04:33:35.919Z,5.70
2019-03-29T04:36:05.750Z,5.80
2019-03-29T04:38:35.558Z,5.80
2019-03-29T04:41:05.626Z,5.80
2019-03-29T04:43:35.258Z,5.80
2019-03-29T04:46:04.887Z,5.70
2019-03-29T04:48:34.469Z,5.80
2019-03-29T04:51:04.095Z,5.80
2019-03-29T04:53:33.749Z,5.90
2019-03-29T04:56:03.383Z,5.90
2019-03-29T04:58:33.046Z,5.90
2019-03-29T05:01:02.665Z,5.90
2019-03-29T05:03:32.307Z,6.00
2019-03-29T05:06:01.988Z,6.00
2019-03-29T05:08:31.644Z,5.90
2019-03-29T05:11:01.273Z,6.00
2019-03-29T05:13:30.901Z,6.00
2019-03-29T05:16:00.523Z,6.00
2019-03-29T05:18:30.161Z,6.00
2019-03-29T05:20:59.801Z,6.00
2019-03-29T05:23:29.425Z,6.00
2019-03-29T05:25:59.065Z,6.00
2019-03-29T05:28:28.719Z,6.00
2019-03-29T05:30:58.335Z,6.00
2019-03-29T05:33:27.971Z,6.00
2019-03-29T05:35:57.586Z,5.90
2019-03-29T05:38:27.243Z,5.90
2019-03-29T05:40:56.861Z,5.90
2019-03-29T05:43:26.611Z,5.90
2019-03-29T05:45:56.231Z,5.90
2019-03-29T05:48:25.933Z,5.90
2019-03-29T05:50:55.563Z,5.90
2019-03-29T05:53:25.133Z,5.80
2019-03-29T05:55:54.788Z,5.90
2019-03-29T05:58:24.477Z,5.90
2019-03-29T06:00:54.225Z,5.90
2019-03-29T06:03:23.887Z,5.90
2019-03-29T06:05:53.541Z,5.90
2019-03-29T06:08:23.165Z,5.90
2019-03-29T06:10:52.867Z,6.00
2019-03-29T06:13:22.517Z,6.10
2019-03-29T06:15:52.216Z,6.20
2019-03-29T06:18:21.872Z,6.30
2019-03-29T06:20:51.516Z,6.40
2019-03-29T06:23:21.197Z,6.50
2019-03-29T06:25:50.916Z,6.60
2019-03-29T06:28:20.560Z,6.60
2019-03-29T06:30:50.199Z,6.60
2019-03-29T06:33:19.810Z,6.60
2019-03-29T06:35:51.945Z,6.60
2019-03-29T06:38:24.738Z,6.70
2019-03-29T06:41:02.834Z,6.70
2019-03-29T06:43:25.753Z,6.80
2019-03-29T06:45:55.382Z,6.90
2019-03-29T06:48:25.025Z,7.00
2019-03-29T06:50:54.684Z,7.00
2019-03-29T06:53:24.309Z,7.20
2019-03-29T06:55:53.851Z,7.20
2019-03-29T06:58:23.519Z,7.30
2019-03-29T07:00:53.160Z,7.40
2019-03-29T07:03:22.798Z,7.50
2019-03-29T07:05:52.431Z,7.60
2019-03-29T07:08:22.024Z,7.60
2019-03-29T07:10:51.678Z,7.80
2019-03-29T07:13:21.297Z,7.90
2019-03-29T07:15:51.014Z,8.10
2019-03-29T07:18:20.922Z,8.20
2019-03-29T07:20:50.502Z,8.20
2019-03-29T07:23:20.102Z,8.30
2019-03-29T07:25:50.132Z,8.40
2019-03-29T07:28:19.766Z,8.50
2019-03-29T07:30:49.390Z,8.50
2019-03-29T07:33:18.996Z,8.60
2019-03-29T07:35:48.642Z,8.70
2019-03-29T07:38:18.272Z,8.80
2019-03-29T07:40:47.880Z,8.80
2019-03-29T07:43:17.484Z,8.90
2019-03-29T07:45:47.100Z,9.00
2019-03-29T07:48:16.714Z,9.00
2019-03-29T07:50:46.354Z,9.10
2019-03-29T07:53:15.974Z,9.20
2019-03-29T07:55:45.592Z,9.30
2019-03-29T07:58:15.198Z,9.30
2019-03-29T08:00:44.823Z,9.40
2019-03-29T08:03:14.441Z,9.40
2019-03-29T08:05:45.172Z,9.50
2019-03-29T08:08:23.887Z,9.50
2019-03-29T08:10:46.222Z,9.60
2019-03-29T08:13:16.270Z,9.60
2019-03-29T08:15:46.290Z,9.60
2019-03-29T08:18:15.903Z,9.80
2019-03-29T08:20:45.767Z,9.90
2019-03-29T08:23:15.399Z,10.00
2019-03-29T08:25:45.030Z,10.10
2019-03-29T08:28:14.654Z,10.10
2019-03-29T08:30:44.280Z,10.20
2019-03-29T08:33:13.886Z,10.30
2019-03-29T08:35:43.548Z,10.40
2019-03-29T08:38:13.174Z,10.50
2019-03-29T08:40:45.211Z,10.60
2019-03-29T08:43:14.141Z,10.70
2019-03-29T08:45:43.752Z,10.80
2019-03-29T08:48:13.430Z,10.80
2019-03-29T08:50:43.069Z,10.80
2019-03-29T08:53:12.694Z,10.90
2019-03-29T08:55:46.161Z,10.90
2019-03-29T08:58:13.948Z,11.00
2019-03-29T09:00:43.585Z,11.10
2019-03-29T09:03:13.407Z,11.20
2019-03-29T09:05:43.237Z,11.10
2019-03-29T09:08:12.871Z,11.20
2019-03-29T09:10:42.504Z,11.20
2019-03-29T09:13:12.116Z,11.40
2019-03-29T09:15:41.756Z,11.40
2019-03-29T09:18:11.488Z,11.50
2019-03-29T09:20:41.296Z,11.60
2019-03-29T09:23:10.914Z,11.60
2019-03-29T09:25:40.723Z,11.60
2019-03-29T09:28:10.470Z,11.80
2019-03-29T09:30:40.087Z,11.90
2019-03-29T09:33:09.687Z,12.00
2019-03-29T09:35:42.579Z,12.00
2019-03-29T09:38:10.658Z,12.00
2019-03-29T09:40:40.374Z,12.10
2019-03-29T09:43:10.224Z,12.20
2019-03-29T09:45:41.289Z,12.20
2019-03-29T09:48:11.035Z,12.30
2019-03-29T09:50:40.761Z,12.40
2019-03-29T09:53:10.370Z,12.40
2019-03-29T09:55:40.014Z,12.50
2019-03-29T09:58:09.643Z,12.60
2019-03-29T10:00:39.289Z,12.70
2019-03-29T10:03:08.900Z,12.60
2019-03-29T10:05:38.535Z,12.70
2019-03-29T10:08:08.105Z,12.70
2019-03-29T10:10:37.723Z,12.80
2019-03-29T10:13:07.377Z,12.90
2019-03-29T10:15:36.984Z,12.90
2019-03-29T10:18:06.591Z,12.90
2019-03-29T10:20:36.221Z,12.80
2019-03-29T10:23:05.841Z,12.90
2019-03-29T10:25:35.479Z,13.00
2019-03-29T10:28:05.288Z,13.40
2019-03-29T10:30:46.277Z,13.60
2019-03-29T10:33:14.493Z,14.00
2019-03-29T10:35:52.282Z,14.30
2019-03-29T10:38:18.145Z,14.60
2019-03-29T10:40:46.838Z,14.80
2019-03-29T10:43:16.639Z,14.90
2019-03-29T10:45:46.360Z,14.90
2019-03-29T10:48:16.032Z,14.90
2019-03-29T10:50:45.647Z,14.90
2019-03-29T10:53:15.299Z,15.00
2019-03-29T10:55:44.961Z,15.10
2019-03-29T10:58:14.667Z,15.20
2019-03-29T11:00:44.287Z,15.30
2019-03-29T11:03:13.901Z,15.40
2019-03-29T11:05:43.587Z,15.50
2019-03-29T11:08:13.201Z,15.70
2019-03-29T11:10:42.860Z,15.80
2019-03-29T11:13:14.204Z,16.00
2019-03-29T11:15:43.831Z,16.00
2019-03-29T11:18:13.547Z,16.00
2019-03-29T11:20:43.156Z,16.00
2019-03-29T11:23:12.751Z,16.10
2019-03-29T11:25:42.381Z,16.00
2019-03-29T11:28:12.085Z,15.80
2019-03-29T11:30:43.128Z,15.80
2019-03-29T11:33:13.167Z,15.70
2019-03-29T11:35:42.821Z,15.60
2019-03-29T11:38:12.449Z,15.50
2019-03-29T11:40:42.070Z,15.50
2019-03-29T11:43:25.749Z,15.40
2019-03-29T11:45:43.093Z,15.40
2019-03-29T11:48:12.703Z,15.30
2019-03-29T11:50:42.336Z,15.30
2019-03-29T11:53:12.012Z,15.30
2019-03-29T11:55:41.631Z,15.20
2019-03-29T11:58:11.247Z,15.30
2019-03-29T12:00:41.305Z,15.30
2019-03-29T12:03:10.918Z,15.30
2019-03-29T12:05:40.655Z,15.30
2019-03-29T12:08:10.307Z,15.40
2019-03-29T12:10:39.925Z,15.40
2019-03-29T12:13:10.285Z,15.40
2019-03-29T12:15:40.189Z,15.40
2019-03-29T12:18:09.808Z,15.40
2019-03-29T12:20:39.519Z,15.30
2019-03-29T12:23:09.226Z,15.30
2019-03-29T12:25:38.855Z,15.30
2019-03-29T12:28:08.645Z,15.40
2019-03-29T12:30:39.179Z,15.40
2019-03-29T12:33:08.807Z,15.50
2019-03-29T12:35:38.427Z,15.50
2019-03-29T12:38:08.070Z,15.60
2019-03-29T12:40:37.694Z,15.70
2019-03-29T12:43:07.312Z,15.70
2019-03-29T12:45:37.366Z,15.80
2019-03-29T12:48:07.203Z,15.80
2019-03-29T12:50:36.947Z,15.80
2019-03-29T12:53:06.647Z,15.80
2019-03-29T12:55:36.777Z,15.80
2019-03-29T12:58:06.504Z,15.80
2019-03-29T13:00:36.377Z,15.80
2019-03-29T13:03:06.093Z,15.80
2019-03-29T13:05:35.749Z,15.80
2019-03-29T13:08:05.393Z,15.80
2019-03-29T13:10:35.101Z,15.90
2019-03-29T13:13:04.742Z,15.90
2019-03-29T13:15:34.427Z,15.90
2019-03-29T13:18:04.086Z,16.00
2019-03-29T13:20:33.732Z,16.00
2019-03-29T13:23:03.438Z,16.00
2019-03-29T13:25:33.136Z,16.00
2019-03-29T13:28:02.794Z,16.00
2019-03-29T13:30:32.544Z,16.00
2019-03-29T13:33:02.204Z,16.00
2019-03-29T13:35:31.835Z,16.00
2019-03-29T13:38:01.449Z,16.10
2019-03-29T13:40:31.073Z,16.10
2019-03-29T13:43:00.682Z,16.10
2019-03-29T13:45:30.292Z,16.10
2019-03-29T13:47:59.964Z,16.10
2019-03-29T13:50:29.615Z,16.10
2019-03-29T13:52:59.265Z,16.00
2019-03-29T13:55:28.986Z,16.00
2019-03-29T13:57:58.633Z,15.90
2019-03-29T14:00:28.268Z,16.00
2019-03-29T14:02:57.957Z,16.00
2019-03-29T14:05:27.595Z,16.00
2019-03-29T14:07:57.231Z,16.10
2019-03-29T14:10:26.841Z,16.10
2019-03-29T14:12:56.473Z,16.10
2019-03-29T14:15:26.089Z,16.10
2019-03-29T14:17:55.693Z,16.00
2019-03-29T14:20:35.243Z,16.10
2019-03-29T14:23:04.895Z,16.20
2019-03-29T14:25:34.526Z,16.20
2019-03-29T14:28:04.610Z,16.30
2019-03-29T14:30:34.284Z,16.40
2019-03-29T14:33:03.890Z,16.40
2019-03-29T14:35:33.549Z,16.50
2019-03-29T14:38:03.160Z,16.50
2019-03-29T14:40:32.778Z,16.50
2019-03-29T14:43:02.476Z,16.50
2019-03-29T14:45:32.195Z,16.50
2019-03-29T14:48:01.849Z,16.40
2019-03-29T14:50:31.474Z,16.40
2019-03-29T14:53:01.099Z,16.40
2019-03-29T14:55:30.714Z,16.30
2019-03-29T14:58:00.324Z,16.30
2019-03-29T15:00:40.800Z,16.30
2019-03-29T15:03:10.453Z,16.30
2019-03-29T15:05:40.489Z,16.30
2019-03-29T15:08:10.303Z,16.30
2019-03-29T15:10:39.933Z,16.20
2019-03-29T15:13:09.563Z,16.30
2019-03-29T15:15:39.186Z,16.30
2019-03-29T15:18:08.814Z,16.30
2019-03-29T15:20:52.124Z,16.30
2019-03-29T15:23:09.779Z,16.30
2019-03-29T15:25:40.742Z,16.30
2019-03-29T15:28:10.694Z,16.20
2019-03-29T15:30:40.423Z,16.20
2019-03-29T15:33:10.122Z,16.20
2019-03-29T15:35:39.733Z,16.10
2019-03-29T15:38:09.370Z,16.00
2019-03-29T15:40:39.019Z,15.90
2019-03-29T15:43:08.636Z,15.90
2019-03-29T15:45:38.288Z,15.90
2019-03-29T15:48:07.930Z,15.80
2019-03-29T15:50:37.623Z,15.80
2019-03-29T15:53:07.418Z,15.80
2019-03-29T15:55:37.045Z,15.80
2019-03-29T15:58:06.691Z,15.80
2019-03-29T16:00:36.450Z,15.80
2019-03-29T16:03:06.100Z,15.70
2019-03-29T16:05:35.722Z,15.70
2019-03-29T16:08:05.446Z,15.70
2019-03-29T16:10:35.068Z,15.70
2019-03-29T16:13:05.140Z,15.60
2019-03-29T16:15:38.198Z,15.60
2019-03-29T16:18:06.172Z,15.60
2019-03-29T16:20:35.838Z,15.60
2019-03-29T16:23:05.454Z,15.60
2019-03-29T16:25:35.170Z,15.60
2019-03-29T16:28:04.824Z,15.60
2019-03-29T16:30:34.543Z,15.60
2019-03-29T16:33:04.260Z,15.60
2019-03-29T16:35:33.898Z,15.60
2019-03-29T16:38:03.525Z,15.60
2019-03-29T16:40:33.141Z,15.60
2019-03-29T16:43:02.762Z,15.50
2019-03-29T16:45:32.504Z,15.50
2019-03-29T16:48:02.162Z,15.50
2019-03-29T16:50:31.798Z,15.40
2019-03-29T16:53:01.411Z,15.30
2019-03-29T16:55:31.095Z,15.20
2019-03-29T16:58:00.734Z,15.10
2019-03-29T17:00:30.368Z,15.00
2019-03-29T17:02:59.990Z,14.90
2019-03-29T17:05:29.618Z,14.90
2019-03-29T17:07:59.233Z,14.80
2019-03-29T17:10:28.876Z,14.80
2019-03-29T17:12:58.473Z,14.70
2019-03-29T17:15:28.123Z,14.70
2019-03-29T17:17:57.827Z,14.60
2019-03-29T17:20:27.540Z,14.50
2019-03-29T17:22:57.200Z,14.40
2019-03-29T17:25:26.845Z,14.30
2019-03-29T17:27:56.491Z,14.30
2019-03-29T17:30:43.290Z,14.20
2019-03-29T17:33:13.010Z,14.10
2019-03-29T17:35:42.691Z,14.00
2019-03-29T17:38:12.353Z,13.90
2019-03-29T17:40:42.088Z,13.80
2019-03-29T17:43:11.742Z,13.70
2019-03-29T17:45:41.386Z,13.60
2019-03-29T17:48:11.129Z,13.40
2019-03-29T17:50:40.833Z,13.30
2019-03-29T17:53:10.440Z,13.20
2019-03-29T17:55:40.176Z,13.10
2019-03-29T17:58:09.815Z,12.90
2019-03-29T18:00:39.520Z,12.80
2019-03-29T18:03:09.214Z,12.70
2019-03-29T18:05:38.936Z,12.60
2019-03-29T18:08:08.570Z,12.50
2019-03-29T18:10:38.312Z,12.30
2019-03-29T18:13:13.449Z,12.20
2019-03-29T18:15:43.108Z,12.10
2019-03-29T18:18:13.204Z,12.00
2019-03-29T18:20:43.238Z,11.90
2019-03-29T18:23:12.923Z,11.80
2019-03-29T18:25:42.612Z,11.70
2019-03-29T18:28:12.302Z,11.70
2019-03-29T18:30:43.303Z,11.60
2019-03-29T18:33:12.975Z,11.50
2019-03-29T18:35:42.623Z,11.60
2019-03-29T18:38:12.377Z,11.70
2019-03-29T18:40:42.141Z,11.70
2019-03-29T18:43:11.853Z,11.70
2019-03-29T18:45:41.985Z,11.60
2019-03-29T18:48:11.737Z,11.50
2019-03-29T18:50:41.511Z,11.50
2019-03-29T18:53:11.407Z,11.40
2019-03-29T18:55:41.090Z,11.30
2019-03-29T18:58:10.926Z,11.30
2019-03-29T19:00:40.551Z,11.20
2019-03-29T19:03:11.965Z,11.10
2019-03-29T19:05:41.630Z,11.00
2019-03-29T19:08:11.248Z,11.00
2019-03-29T19:10:40.947Z,10.90
2019-03-29T19:13:10.593Z,10.90
2019-03-29T19:15:40.200Z,10.80
2019-03-29T19:18:09.843Z,10.80
2019-03-29T19:20:39.538Z,10.70
2019-03-29T19:23:09.180Z,10.70
2019-03-29T19:25:38.951Z,10.60
2019-03-29T19:28:08.578Z,10.60
2019-03-29T19:30:38.235Z,10.60
2019-03-29T19:33:07.875Z,10.60
2019-03-29T19:35:37.519Z,10.60
2019-03-29T19:38:07.200Z,10.60
2019-03-29T19:40:36.852Z,10.60
2019-03-29T19:43:06.494Z,10.50
2019-03-29T19:45:36.138Z,10.50
2019-03-29T19:48:05.759Z,10.50
2019-03-29T19:50:35.381Z,10.40
2019-03-29T19:53:05.004Z,10.40
2019-03-29T19:55:35.233Z,10.30
2019-03-29T19:58:04.975Z,10.20
2019-03-29T20:00:41.060Z,10.20
2019-03-29T20:03:10.869Z,10.10
2019-03-29T20:05:41.164Z,10.00
2019-03-29T20:08:10.815Z,10.00
2019-03-29T20:10:40.454Z,10.00
2019-03-29T20:13:10.176Z,9.90
2019-03-29T20:15:39.795Z,9.90
2019-03-29T20:18:09.427Z,9.80
2019-03-29T20:20:39.075Z,9.80
2019-03-29T20:23:08.766Z,9.80
2019-03-29T20:25:38.410Z,9.70
2019-03-29T20:28:07.258Z,9.70
2019-03-29T20:30:36.991Z,9.70
2019-03-29T20:33:06.623Z,9.60
2019-03-29T20:35:36.347Z,9.60
2019-03-29T20:38:05.992Z,9.60
2019-03-29T20:40:35.624Z,9.50
2019-03-29T20:43:05.295Z,9.50
2019-03-29T20:45:34.971Z,9.50
2019-03-29T20:48:04.669Z,9.40
2019-03-29T20:50:34.318Z,9.40
2019-03-29T20:53:04.043Z,9.40
2019-03-29T20:55:33.665Z,9.40
2019-03-29T20:58:03.318Z,9.30
2019-03-29T21:00:32.856Z,9.30
2019-03-29T21:03:02.635Z,9.20
2019-03-29T21:05:32.339Z,9.20
2019-03-29T21:08:02.023Z,9.20
2019-03-29T21:10:31.625Z,9.20
2019-03-29T21:13:01.249Z,9.20
2019-03-29T21:15:30.860Z,9.20
2019-03-29T21:18:00.559Z,9.20
2019-03-29T21:20:30.212Z,9.10
2019-03-29T21:22:59.829Z,9.10
2019-03-29T21:25:29.665Z,9.00
2019-03-29T21:27:59.316Z,9.00
2019-03-29T21:30:29.071Z,9.00
2019-03-29T21:32:58.684Z,9.00
2019-03-29T21:35:28.423Z,9.00
2019-03-29T21:37:58.040Z,9.00
2019-03-29T21:40:27.743Z,9.00
2019-03-29T21:42:57.394Z,9.00
2019-03-29T21:45:28.935Z,8.90
2019-03-29T21:48:08.823Z,8.90
2019-03-29T21:50:29.955Z,8.90
2019-03-29T21:52:59.702Z,8.80
2019-03-29T21:55:29.310Z,8.70
2019-03-29T21:57:58.937Z,8.80
2019-03-29T22:00:28.557Z,8.80
2019-03-29T22:02:58.121Z,8.80
2019-03-29T22:05:27.740Z,8.80
2019-03-29T22:07:57.441Z,8.80
2019-03-29T22:10:27.125Z,8.70
2019-03-29T22:12:56.768Z,8.70
2019-03-29T22:15:26.412Z,8.70
2019-03-29T22:17:56.177Z,8.70
2019-03-29T22:20:25.807Z,8.70
2019-03-29T22:22:55.359Z,8.70
2019-03-29T22:25:25.067Z,8.70
2019-03-29T22:27:54.784Z,8.70
2019-03-29T22:30:24.404Z,8.70
2019-03-29T22:32:54.035Z,8.60
2019-03-29T22:35:23.796Z,8.60
2019-03-29T22:37:53.503Z,8.60
2019-03-29T22:40:23.242Z,8.50
2019-03-29T22:42:52.870Z,8.50
2019-03-29T22:45:22.561Z,8.50
2019-03-29T22:47:52.264Z,8.50
2019-03-29T22:50:21.905Z,8.40
2019-03-29T22:52:54.432Z,8.40
2019-03-29T22:55:22.906Z,8.40
2019-03-29T22:57:52.533Z,8.30
2019-03-29T23:00:32.261Z,8.20
2019-03-29T23:03:01.927Z,8.20
2019-03-29T23:05:31.547Z,8.20
2019-03-29T23:08:01.211Z,8.10
2019-03-29T23:10:30.834Z,8.10
2019-03-29T23:13:00.450Z,8.10
2019-03-29T23:15:30.227Z,8.00
2019-03-29T23:17:59.844Z,8.00
2019-03-29T23:20:29.476Z,8.00
2019-03-29T23:22:59.107Z,7.90
2019-03-29T23:25:28.734Z,7.90
2019-03-29T23:27:58.365Z,7.90
2019-03-29T23:30:28.082Z,7.90
2019-03-29T23:32:57.684Z,7.80
2019-03-29T23:35:27.308Z,7.80
2019-03-29T23:37:56.912Z,7.80
2019-03-29T23:40:26.543Z,7.80
2019-03-29T23:42:56.211Z,7.70
2019-03-29T23:45:25.839Z,7.80
2019-03-29T23:47:55.512Z,7.80
2019-03-29T23:50:25.293Z,7.80
2019-03-29T23:52:54.912Z,7.80
2019-03-29T23:55:24.582Z,7.70
2019-03-29T23:57:54.319Z,7.70
